createdAt,value
2018-12-11T00:00:39.339Z,4.50
2018-12-11T00:01:39.331Z,4.40
2018-12-11T00:02:39.290Z,4.90
2018-12-11T00:03:39.268Z,4.80
2018-12-11T00:04:39.244Z,4.40
2018-12-11T00:05:39.225Z,4.20
2018-12-11T00:06:39.228Z,4.40
2018-12-11T00:07:39.181Z,4.30
2018-12-11T00:08:39.155Z,4.50
2018-12-11T00:09:39.141Z,4.60
2018-12-11T00:10:39.112Z,4.50
2018-12-11T00:11:39.088Z,4.50
2018-12-11T00:12:39.089Z,4.50
2018-12-11T00:13:39.038Z,4.20
2018-12-11T00:14:39.022Z,4.40
2018-12-11T00:15:38.998Z,4.60
2018-12-11T00:16:38.974Z,4.40
2018-12-11T00:17:38.947Z,4.40
2018-12-11T00:18:38.945Z,4.80
2018-12-11T00:19:38.903Z,4.80
2018-12-11T00:20:38.888Z,4.70
2018-12-11T00:21:38.879Z,4.50
2018-12-11T00:22:38.856Z,4.80
2018-12-11T00:23:38.818Z,4.40
2018-12-11T00:24:38.805Z,4.80
2018-12-11T00:25:38.770Z,4.80
2018-12-11T00:26:38.764Z,4.20
2018-12-11T00:27:38.728Z,4.60
2018-12-11T00:28:38.707Z,5.10
2018-12-11T00:29:38.690Z,4.90
2018-12-11T00:30:38.662Z,4.70
2018-12-11T00:31:38.658Z,4.90
2018-12-11T00:32:38.616Z,4.60
2018-12-11T00:33:38.597Z,4.70
2018-12-11T00:34:38.573Z,5.20
2018-12-11T00:35:38.559Z,4.90
2018-12-11T00:36:38.524Z,5.00
2018-12-11T00:37:38.523Z,4.90
2018-12-11T00:38:38.484Z,5.00
2018-12-11T00:39:38.458Z,4.90
2018-12-11T00:40:38.454Z,4.80
2018-12-11T00:41:38.413Z,4.90
2018-12-11T00:42:38.444Z,4.90
2018-12-11T00:43:38.368Z,5.10
2018-12-11T00:44:38.346Z,4.60
2018-12-11T00:45:38.345Z,4.80
2018-12-11T00:46:39.120Z,4.80
2018-12-11T00:47:38.279Z,4.70
2018-12-11T00:48:38.258Z,4.90
2018-12-11T00:49:38.241Z,5.20
2018-12-11T00:50:38.211Z,5.30
2018-12-11T00:51:38.213Z,5.10
2018-12-11T00:52:38.186Z,5.20
2018-12-11T00:53:38.143Z,4.60
2018-12-11T00:54:38.129Z,5.20
2018-12-11T00:55:38.105Z,5.30
2018-12-11T00:56:38.092Z,4.90
2018-12-11T00:57:38.054Z,5.30
2018-12-11T00:58:38.033Z,5.20
2018-12-11T00:59:38.013Z,5.00
2018-12-11T01:00:37.987Z,5.10
2018-12-11T01:01:37.998Z,5.10
2018-12-11T01:02:37.941Z,5.00
2018-12-11T01:03:37.936Z,5.10
2018-12-11T01:04:37.894Z,4.80
2018-12-11T01:05:37.878Z,5.10
2018-12-11T01:06:37.872Z,5.20
2018-12-11T01:07:37.829Z,5.50
2018-12-11T01:08:37.808Z,5.20
2018-12-11T01:09:37.804Z,5.20
2018-12-11T01:10:37.783Z,4.80
2018-12-11T01:11:37.744Z,4.90
2018-12-11T01:12:37.733Z,4.80
2018-12-11T01:13:37.727Z,4.70
2018-12-11T01:14:37.679Z,4.90
2018-12-11T01:15:37.681Z,4.90
2018-12-11T01:16:37.630Z,5.10
2018-12-11T01:17:37.608Z,5.20
2018-12-11T01:18:37.601Z,4.70
2018-12-11T01:19:37.560Z,4.80
2018-12-11T01:20:37.540Z,5.10
2018-12-11T01:21:37.530Z,5.20
2018-12-11T01:24:19.481Z,5.10
2018-12-11T01:25:19.437Z,5.20
2018-12-11T01:26:19.419Z,5.30
2018-12-11T01:27:19.394Z,4.70
2018-12-11T01:28:19.376Z,4.90
2018-12-11T01:29:19.357Z,4.70
2018-12-11T01:30:19.346Z,4.90
2018-12-11T01:31:19.325Z,5.20
2018-12-11T01:32:19.284Z,5.20
2018-12-11T01:33:19.279Z,4.80
2018-12-11T01:34:19.260Z,5.10
2018-12-11T01:35:19.220Z,5.20
2018-12-11T01:36:19.195Z,4.80
2018-12-11T01:37:19.173Z,5.00
2018-12-11T01:38:19.150Z,5.00
2018-12-11T01:39:19.127Z,4.80
2018-12-11T01:40:19.129Z,5.00
2018-12-11T01:41:19.080Z,5.00
2018-12-11T01:42:19.061Z,5.10
2018-12-11T01:43:19.040Z,5.20
2018-12-11T01:44:19.017Z,5.10
2018-12-11T01:45:19.009Z,4.70
2018-12-11T01:46:18.970Z,4.90
2018-12-11T01:47:18.949Z,4.70
2018-12-11T01:48:18.924Z,5.20
2018-12-11T01:49:18.927Z,4.70
2018-12-11T01:50:18.879Z,5.00
2018-12-11T01:51:18.880Z,5.10
2018-12-11T01:52:18.840Z,5.40
2018-12-11T01:53:18.811Z,5.00
2018-12-11T01:54:18.791Z,4.70
2018-12-11T01:55:18.763Z,5.10
2018-12-11T01:56:18.763Z,5.20
2018-12-11T01:57:18.719Z,5.00
2018-12-11T01:58:18.700Z,5.00
2018-12-11T01:59:18.682Z,4.80
2018-12-11T02:00:18.698Z,5.10
2018-12-11T02:01:18.643Z,4.70
2018-12-11T02:02:18.615Z,5.30
2018-12-11T02:03:18.587Z,4.90
2018-12-11T02:04:18.564Z,5.10
2018-12-11T02:05:18.544Z,4.90
2018-12-11T02:06:18.538Z,4.80
2018-12-11T02:07:18.517Z,4.80
2018-12-11T02:08:18.477Z,4.80
2018-12-11T02:09:18.460Z,4.80
2018-12-11T02:10:18.432Z,4.90
2018-12-11T02:11:18.410Z,4.60
2018-12-11T02:12:18.387Z,4.70
2018-12-11T02:13:18.374Z,5.10
2018-12-11T02:14:18.339Z,5.40
2018-12-11T02:15:18.334Z,4.90
2018-12-11T02:16:18.294Z,4.80
2018-12-11T02:17:18.275Z,5.20
2018-12-11T02:18:18.254Z,4.80
2018-12-11T02:19:18.236Z,5.00
2018-12-11T02:20:18.222Z,5.00
2018-12-11T02:21:18.187Z,5.40
2018-12-11T02:22:18.161Z,5.20
2018-12-11T02:23:18.144Z,5.00
2018-12-11T02:24:18.127Z,5.10
2018-12-11T02:25:18.131Z,5.30
2018-12-11T02:26:18.073Z,4.70
2018-12-11T02:27:18.069Z,5.10
2018-12-11T02:28:18.034Z,5.00
2018-12-11T02:29:18.003Z,5.00
2018-12-11T02:30:17.982Z,5.00
2018-12-11T02:31:17.987Z,5.30
2018-12-11T02:32:17.936Z,4.80
2018-12-11T02:33:17.944Z,5.20
2018-12-11T02:34:17.899Z,4.90
2018-12-11T02:35:17.889Z,4.90
2018-12-11T02:36:17.851Z,4.80
2018-12-11T02:37:17.828Z,4.80
2018-12-11T02:38:17.805Z,4.90
2018-12-11T02:39:17.776Z,5.00
2018-12-11T02:40:17.777Z,4.90
2018-12-11T02:41:17.736Z,5.30
2018-12-11T02:42:17.730Z,4.90
2018-12-11T02:43:17.692Z,5.00
2018-12-11T02:44:17.668Z,4.70
2018-12-11T02:45:17.667Z,4.70
2018-12-11T02:46:17.620Z,4.80
2018-12-11T02:47:17.601Z,5.10
2018-12-11T02:48:17.596Z,4.80
2018-12-11T02:49:17.557Z,4.50
2018-12-11T02:50:17.555Z,4.60
2018-12-11T02:51:17.521Z,4.80
2018-12-11T02:52:17.492Z,4.80
2018-12-11T02:53:17.480Z,5.30
2018-12-11T02:54:17.443Z,4.60
2018-12-11T02:55:17.438Z,5.00
2018-12-11T02:56:17.400Z,4.90
2018-12-11T02:57:17.373Z,5.00
2018-12-11T02:58:17.367Z,5.20
2018-12-11T02:59:17.348Z,5.00
2018-12-11T03:00:17.305Z,5.30
2018-12-11T03:01:17.286Z,5.20
2018-12-11T03:02:17.265Z,5.00
2018-12-11T03:03:17.241Z,5.50
2018-12-11T03:04:17.215Z,5.40
2018-12-11T03:05:17.213Z,5.10
2018-12-11T03:06:17.173Z,5.40
2018-12-11T03:07:17.149Z,5.40
2018-12-11T03:08:17.135Z,5.60
2018-12-11T03:09:17.123Z,5.10
2018-12-11T03:10:17.099Z,5.20
2018-12-11T03:11:17.061Z,5.50
2018-12-11T03:12:17.039Z,5.40
2018-12-11T03:13:17.009Z,5.70
2018-12-11T03:14:16.992Z,5.30
2018-12-11T03:15:16.980Z,5.20
2018-12-11T03:16:16.946Z,5.30
2018-12-11T03:17:16.921Z,5.30
2018-12-11T03:18:16.900Z,5.40
2018-12-11T03:19:16.888Z,5.40
2018-12-11T03:20:16.874Z,5.00
2018-12-11T03:21:16.847Z,5.30
2018-12-11T03:22:16.808Z,5.00
2018-12-11T03:23:16.788Z,5.20
2018-12-11T03:24:16.769Z,5.40
2018-12-11T03:25:16.738Z,5.10
2018-12-11T03:26:16.741Z,5.20
2018-12-11T03:27:16.693Z,5.50
2018-12-11T03:28:16.674Z,5.20
2018-12-11T03:29:16.650Z,5.70
2018-12-11T03:30:16.635Z,5.00
2018-12-11T03:31:16.606Z,5.60
2018-12-11T03:32:16.602Z,5.40
2018-12-11T03:33:16.586Z,5.20
2018-12-11T03:34:16.536Z,5.30
2018-12-11T03:35:16.547Z,5.30
2018-12-11T03:36:16.517Z,5.80
2018-12-11T03:37:16.473Z,5.60
2018-12-11T03:38:16.447Z,5.70
2018-12-11T03:39:16.421Z,6.00
2018-12-11T03:40:16.401Z,5.70
2018-12-11T03:41:16.374Z,5.90
2018-12-11T03:42:16.371Z,5.80
2018-12-11T03:43:16.348Z,5.80
2018-12-11T03:44:16.308Z,5.60
2018-12-11T03:45:16.287Z,6.10
2018-12-11T03:46:16.266Z,5.80
2018-12-11T03:47:16.239Z,6.10
2018-12-11T03:48:16.240Z,6.00
2018-12-11T03:49:16.195Z,5.80
2018-12-11T03:50:16.199Z,6.00
2018-12-11T03:51:16.154Z,6.00
2018-12-11T03:52:21.334Z,5.60
2018-12-11T03:53:16.117Z,5.60
2018-12-11T03:54:16.082Z,5.90
2018-12-11T03:55:16.076Z,5.70
2018-12-11T03:56:16.034Z,5.90
2018-12-11T03:57:16.014Z,5.90
2018-12-11T03:58:15.996Z,5.90
2018-12-11T03:59:15.961Z,6.10
2018-12-11T04:00:15.960Z,5.90
2018-12-11T04:01:15.936Z,6.20
2018-12-11T04:02:15.902Z,5.70
2018-12-11T04:03:15.892Z,6.20
2018-12-11T04:04:15.854Z,6.00
2018-12-11T04:05:15.831Z,6.10
2018-12-11T04:06:15.846Z,6.30
2018-12-11T04:07:15.786Z,6.40
2018-12-11T04:08:15.784Z,6.20
2018-12-11T04:09:15.740Z,6.30
2018-12-11T04:10:15.717Z,5.80
2018-12-11T04:11:15.697Z,6.00
2018-12-11T04:12:15.669Z,6.30
2018-12-11T04:13:15.668Z,6.10
2018-12-11T04:14:15.626Z,6.50
2018-12-11T04:15:15.628Z,6.10
2018-12-11T04:16:15.582Z,6.30
2018-12-11T04:17:15.561Z,5.80
2018-12-11T04:18:15.540Z,5.90
2018-12-11T04:19:15.517Z,5.90
2018-12-11T04:20:15.508Z,5.60
2018-12-11T04:21:15.470Z,5.70
2018-12-11T04:22:15.445Z,5.40
2018-12-11T04:23:15.440Z,5.50
2018-12-11T04:24:15.407Z,5.60
2018-12-11T04:25:15.380Z,5.60
2018-12-11T04:26:15.360Z,5.70
2018-12-11T04:27:15.453Z,5.70
2018-12-11T04:28:15.326Z,5.40
2018-12-11T04:29:15.310Z,5.40
2018-12-11T04:30:15.265Z,5.60
2018-12-11T04:31:15.241Z,5.50
2018-12-11T04:32:15.243Z,5.30
2018-12-11T04:33:15.195Z,5.40
2018-12-11T04:34:15.171Z,5.50
2018-12-11T04:35:15.152Z,5.20
2018-12-11T04:36:15.132Z,5.10
2018-12-11T04:37:15.116Z,5.20
2018-12-11T04:38:15.082Z,5.60
2018-12-11T04:39:15.064Z,5.40
2018-12-11T04:40:15.059Z,5.20
2018-12-11T04:41:15.010Z,5.30
2018-12-11T04:42:14.992Z,4.90
2018-12-11T04:43:14.970Z,5.10
2018-12-11T04:44:14.948Z,5.20
2018-12-11T04:45:14.940Z,5.10
2018-12-11T04:46:14.942Z,5.40
2018-12-11T04:47:14.877Z,5.40
2018-12-11T04:48:14.860Z,5.40
2018-12-11T04:49:14.833Z,5.10
2018-12-11T04:50:14.825Z,5.20
2018-12-11T04:51:14.789Z,5.00
2018-12-11T04:52:14.765Z,5.50
2018-12-11T04:53:14.746Z,4.80
2018-12-11T04:54:14.726Z,5.30
2018-12-11T04:55:14.692Z,4.90
2018-12-11T04:56:14.694Z,4.60
2018-12-11T04:57:14.675Z,5.10
2018-12-11T04:58:14.626Z,4.80
2018-12-11T04:59:14.609Z,4.70
2018-12-11T05:00:14.607Z,4.90
2018-12-11T05:01:14.567Z,4.80
2018-12-11T05:02:14.539Z,4.90
2018-12-11T05:03:14.518Z,4.80
2018-12-11T05:04:14.494Z,4.70
2018-12-11T05:05:14.473Z,4.80
2018-12-11T05:06:14.470Z,5.00
2018-12-11T05:07:14.437Z,4.70
2018-12-11T05:08:14.405Z,4.90
2018-12-11T05:09:14.381Z,4.50
2018-12-11T05:10:14.364Z,4.90
2018-12-11T05:11:14.333Z,4.50
2018-12-11T05:12:14.345Z,4.60
2018-12-11T05:13:14.291Z,4.40
2018-12-11T05:14:14.282Z,4.70
2018-12-11T05:15:14.248Z,4.90
2018-12-11T05:16:14.226Z,4.60
2018-12-11T05:17:14.213Z,4.30
2018-12-11T05:18:14.180Z,4.40
2018-12-11T05:19:14.167Z,4.70
2018-12-11T05:20:14.138Z,4.10
2018-12-11T05:21:14.113Z,4.50
2018-12-11T05:22:14.106Z,4.30
2018-12-11T05:23:14.071Z,4.30
2018-12-11T05:24:14.043Z,4.70
2018-12-11T05:25:14.081Z,4.30
2018-12-11T05:26:13.997Z,4.40
2018-12-11T05:27:13.974Z,4.30
2018-12-11T05:28:13.974Z,4.50
2018-12-11T05:29:13.936Z,4.40
2018-12-11T05:30:13.917Z,4.00
2018-12-11T05:31:13.889Z,4.80
2018-12-11T05:32:13.878Z,4.30
2018-12-11T05:33:13.842Z,4.20
2018-12-11T05:34:13.836Z,4.70
2018-12-11T05:35:13.889Z,4.00
2018-12-11T05:36:13.785Z,4.30
2018-12-11T05:37:13.753Z,4.20
2018-12-11T05:38:13.730Z,4.10
2018-12-11T05:39:13.708Z,4.10
2018-12-11T05:40:13.702Z,4.20
2018-12-11T05:41:13.666Z,4.10
2018-12-11T05:42:13.640Z,4.00
2018-12-11T05:43:13.619Z,4.10
2018-12-11T05:44:13.618Z,3.90
2018-12-11T05:45:13.573Z,4.10
2018-12-11T05:46:13.547Z,3.90
2018-12-11T05:47:13.531Z,3.90
2018-12-11T05:48:13.509Z,4.20
2018-12-11T05:49:13.483Z,4.00
2018-12-11T05:50:13.517Z,4.10
2018-12-11T05:51:13.441Z,4.30
2018-12-11T05:52:13.448Z,3.90
2018-12-11T05:53:13.405Z,4.30
2018-12-11T05:54:13.374Z,4.00
2018-12-11T05:55:13.357Z,4.30
2018-12-11T05:56:13.348Z,4.40
2018-12-11T05:57:13.302Z,4.30
2018-12-11T05:58:13.282Z,4.00
2018-12-11T05:59:13.259Z,4.20
2018-12-11T06:00:13.265Z,4.10
2018-12-11T06:01:13.221Z,3.80
2018-12-11T06:02:13.201Z,4.30
2018-12-11T06:03:13.171Z,4.10
2018-12-11T06:04:13.148Z,4.00
2018-12-11T06:05:13.151Z,3.80
2018-12-11T06:06:13.101Z,3.90
2018-12-11T06:07:13.082Z,3.80
2018-12-11T06:08:13.063Z,4.00
2018-12-11T06:09:13.043Z,4.20
2018-12-11T06:10:13.027Z,4.00
2018-12-11T06:11:12.999Z,3.70
2018-12-11T06:12:13.000Z,3.70
2018-12-11T06:13:12.945Z,4.30
2018-12-11T06:14:12.921Z,3.90
2018-12-11T06:15:12.921Z,3.80
2018-12-11T06:16:12.872Z,4.00
2018-12-11T06:17:12.855Z,4.20
2018-12-11T06:18:12.838Z,3.90
2018-12-11T06:19:12.810Z,4.10
2018-12-11T06:20:12.786Z,3.80
2018-12-11T06:21:12.780Z,3.80
2018-12-11T06:22:12.743Z,3.70
2018-12-11T06:23:12.718Z,3.70
2018-12-11T06:24:12.695Z,3.40
2018-12-11T06:25:12.675Z,3.40
2018-12-11T06:26:12.657Z,3.50
2018-12-11T06:27:12.671Z,3.30
2018-12-11T06:28:12.600Z,3.30
2018-12-11T06:29:12.613Z,2.90
2018-12-11T06:30:12.568Z,3.30
2018-12-11T06:31:12.564Z,3.00
2018-12-11T06:32:12.529Z,3.40
2018-12-11T06:33:12.497Z,3.20
2018-12-11T06:34:12.470Z,3.30
2018-12-11T06:35:12.446Z,3.10
2018-12-11T06:36:12.425Z,2.80
2018-12-11T06:37:12.417Z,2.90
2018-12-11T06:38:12.378Z,3.20
2018-12-11T06:39:12.359Z,2.90
2018-12-11T06:40:12.333Z,3.20
2018-12-11T06:41:12.309Z,3.20
2018-12-11T06:42:12.289Z,3.10
2018-12-11T06:43:12.287Z,3.10
2018-12-11T06:44:12.301Z,2.90
2018-12-11T06:45:12.224Z,2.80
2018-12-11T06:46:12.197Z,3.10
2018-12-11T06:47:12.179Z,3.00
2018-12-11T06:48:12.155Z,3.20
2018-12-11T06:49:12.164Z,3.20
2018-12-11T06:50:12.124Z,3.00
2018-12-11T06:51:12.090Z,3.30
2018-12-11T06:52:12.076Z,3.00
2018-12-11T06:53:12.063Z,2.90
2018-12-11T06:54:12.026Z,3.10
2018-12-11T06:55:12.019Z,2.80
2018-12-11T06:56:11.977Z,3.00
2018-12-11T06:57:11.966Z,2.80
2018-12-11T06:58:11.965Z,3.00
2018-12-11T06:59:11.922Z,2.90
2018-12-11T07:00:11.887Z,2.90
2018-12-11T07:01:11.859Z,3.30
2018-12-11T07:02:11.839Z,3.50
2018-12-11T07:03:11.822Z,3.40
2018-12-11T07:04:11.814Z,3.30
2018-12-11T07:05:11.788Z,3.40
2018-12-11T07:06:11.755Z,3.60
2018-12-11T07:07:11.749Z,3.60
2018-12-11T07:08:11.706Z,3.50
2018-12-11T07:09:11.685Z,3.70
2018-12-11T07:11:53.996Z,3.70
2018-12-11T07:12:53.985Z,3.60
2018-12-11T07:13:53.949Z,4.00
2018-12-11T07:14:53.930Z,3.80
2018-12-11T07:15:53.920Z,3.40
2018-12-11T07:16:53.889Z,3.90
2018-12-11T07:17:53.860Z,4.10
2018-12-11T07:18:53.841Z,4.20
2018-12-11T07:19:53.830Z,4.10
2018-12-11T07:20:53.798Z,4.20
2018-12-11T07:21:53.771Z,4.50
2018-12-11T07:22:53.764Z,3.70
2018-12-11T07:23:53.722Z,4.20
2018-12-11T07:24:53.707Z,4.30
2018-12-11T07:25:53.699Z,3.70
2018-12-11T07:26:53.656Z,4.10
2018-12-11T07:27:53.639Z,4.20
2018-12-11T07:28:53.613Z,4.40
2018-12-11T07:29:53.586Z,4.70
2018-12-11T07:30:53.591Z,4.30
2018-12-11T07:31:53.560Z,4.60
2018-12-11T07:32:53.522Z,4.20
2018-12-11T07:33:53.501Z,4.40
2018-12-11T07:34:53.474Z,4.40
2018-12-11T07:35:53.456Z,4.60
2018-12-11T07:36:53.444Z,4.60
2018-12-11T07:37:53.403Z,4.70
2018-12-11T07:38:53.383Z,4.90
2018-12-11T07:39:53.360Z,5.10
2018-12-11T07:40:53.343Z,4.80
2018-12-11T07:41:53.338Z,4.90
2018-12-11T07:42:53.293Z,5.00
2018-12-11T07:43:53.277Z,4.90
2018-12-11T07:44:53.271Z,4.80
2018-12-11T07:45:53.225Z,4.60
2018-12-11T07:46:53.200Z,5.20
2018-12-11T07:47:53.179Z,5.00
2018-12-11T07:48:53.172Z,4.70
2018-12-11T07:49:53.132Z,5.00
2018-12-11T07:50:53.109Z,5.40
2018-12-11T07:51:53.109Z,5.00
2018-12-11T07:52:53.068Z,5.50
2018-12-11T07:53:53.064Z,5.00
2018-12-11T07:54:53.022Z,5.20
2018-12-11T07:55:52.998Z,5.20
2018-12-11T07:56:52.996Z,5.20
2018-12-11T07:57:52.953Z,5.50
2018-12-11T07:58:52.941Z,5.50
2018-12-11T07:59:52.914Z,5.80
2018-12-11T08:00:52.893Z,5.40
2018-12-11T08:01:52.877Z,5.20
2018-12-11T08:02:52.843Z,5.30
2018-12-11T08:03:52.821Z,5.10
2018-12-11T08:04:52.794Z,5.00
2018-12-11T08:05:52.771Z,4.90
2018-12-11T08:06:52.769Z,5.40
2018-12-11T08:07:52.729Z,4.90
2018-12-11T08:08:52.702Z,5.20
2018-12-11T08:09:52.683Z,4.80
2018-12-11T08:10:52.659Z,4.90
2018-12-11T08:11:52.633Z,5.00
2018-12-11T08:12:52.637Z,5.10
2018-12-11T08:13:52.584Z,4.60
2018-12-11T08:14:52.565Z,4.90
2018-12-11T08:15:52.543Z,4.80
2018-12-11T08:16:52.521Z,4.80
2018-12-11T08:17:52.504Z,4.50
2018-12-11T08:18:52.496Z,4.80
2018-12-11T08:19:52.451Z,4.70
2018-12-11T08:20:52.427Z,4.10
2018-12-11T08:21:52.405Z,4.90
2018-12-11T08:22:52.382Z,4.30
2018-12-11T08:23:52.378Z,4.70
2018-12-11T08:24:52.358Z,4.50
2018-12-11T08:25:52.313Z,4.30
2018-12-11T08:26:52.288Z,4.30
2018-12-11T08:27:52.270Z,4.10
2018-12-11T08:28:52.244Z,4.30
2018-12-11T08:29:52.246Z,4.40
2018-12-11T08:30:52.200Z,4.50
2018-12-11T08:31:52.181Z,4.40
2018-12-11T08:32:52.158Z,4.50
2018-12-11T08:33:52.155Z,4.90
2018-12-11T08:34:52.657Z,4.30
2018-12-11T08:35:52.084Z,4.60
2018-12-11T08:36:52.065Z,4.30
2018-12-11T08:37:52.045Z,4.30
2018-12-11T08:38:52.014Z,4.00
2018-12-11T08:39:52.011Z,4.20
2018-12-11T08:40:51.981Z,4.40
2018-12-11T08:41:51.949Z,3.70
2018-12-11T08:42:51.931Z,4.30
2018-12-11T08:43:51.904Z,4.00
2018-12-11T08:44:51.915Z,4.10
2018-12-11T08:45:51.892Z,4.50
2018-12-11T08:46:51.841Z,3.90
2018-12-11T08:47:51.830Z,3.90
2018-12-11T08:48:51.797Z,3.70
2018-12-11T08:49:51.801Z,3.70
2018-12-11T08:50:51.752Z,4.40
2018-12-11T08:51:51.729Z,3.70
2018-12-11T08:52:51.709Z,3.70
2018-12-11T08:53:51.678Z,4.10
2018-12-11T08:54:51.661Z,3.80
2018-12-11T08:55:51.659Z,4.10
2018-12-11T08:56:51.620Z,3.80
2018-12-11T08:57:51.605Z,4.20
2018-12-11T08:58:51.571Z,4.00
2018-12-11T08:59:51.557Z,3.90
2018-12-11T09:00:51.560Z,3.60
2018-12-11T09:01:51.525Z,3.80
2018-12-11T09:02:51.485Z,4.10
2018-12-11T09:03:51.461Z,4.10
2018-12-11T09:04:51.447Z,4.00
2018-12-11T09:05:51.418Z,3.90
2018-12-11T09:06:51.396Z,4.20
2018-12-11T09:07:51.418Z,3.70
2018-12-11T09:08:51.349Z,3.60
2018-12-11T09:09:51.339Z,3.80
2018-12-11T09:10:51.315Z,3.90
2018-12-11T09:11:51.288Z,3.80
2018-12-11T09:12:51.283Z,4.10
2018-12-11T09:13:51.244Z,4.20
2018-12-11T09:14:51.219Z,4.00
2018-12-11T09:15:51.215Z,4.20
2018-12-11T09:16:51.175Z,3.90
2018-12-11T09:17:51.153Z,3.80
2018-12-11T09:18:51.137Z,4.10
2018-12-11T09:19:51.125Z,4.00
2018-12-11T09:20:51.101Z,4.10
2018-12-11T09:21:51.063Z,3.90
2018-12-11T09:22:51.062Z,4.40
2018-12-11T09:23:51.046Z,4.40
2018-12-11T09:24:50.992Z,4.30
2018-12-11T09:25:51.042Z,5.50
2018-12-11T09:26:50.971Z,4.50
2018-12-11T09:27:50.931Z,4.60
2018-12-11T09:28:50.928Z,4.20
2018-12-11T09:29:50.887Z,4.60
2018-12-11T09:30:50.864Z,4.30
2018-12-11T09:31:50.846Z,4.40
2018-12-11T09:32:50.843Z,4.30
2018-12-11T09:33:50.800Z,3.80
2018-12-11T09:34:50.773Z,4.00
2018-12-11T09:35:50.765Z,4.40
2018-12-11T09:36:50.734Z,4.30
2018-12-11T09:37:50.727Z,4.20
2018-12-11T09:38:50.685Z,4.20
2018-12-11T09:39:50.688Z,4.30
2018-12-11T09:40:50.646Z,4.10
2018-12-11T09:41:50.621Z,3.80
2018-12-11T09:42:50.601Z,4.10
2018-12-11T09:43:50.580Z,4.10
2018-12-11T09:44:50.553Z,4.00
2018-12-11T09:45:50.555Z,4.10
2018-12-11T09:46:50.517Z,4.00
2018-12-11T09:47:50.488Z,3.80
2018-12-11T09:48:50.487Z,4.20
2018-12-11T09:49:50.448Z,3.80
2018-12-11T09:50:50.426Z,4.10
2018-12-11T09:51:50.452Z,3.90
2018-12-11T09:52:50.383Z,4.00
2018-12-11T09:53:50.377Z,4.20
2018-12-11T09:54:50.336Z,4.20
2018-12-11T09:55:50.314Z,4.10
2018-12-11T09:56:50.289Z,4.20
2018-12-11T09:57:50.272Z,4.00
2018-12-11T09:58:50.248Z,4.30
2018-12-11T09:59:50.249Z,4.00
2018-12-11T10:00:50.205Z,4.20
2018-12-11T10:01:50.198Z,4.40
2018-12-11T10:02:50.160Z,3.90
2018-12-11T10:03:50.140Z,4.10
2018-12-11T10:04:50.119Z,4.00
2018-12-11T10:05:50.094Z,4.00
2018-12-11T10:06:50.093Z,3.60
2018-12-11T10:07:50.053Z,3.80
2018-12-11T10:08:50.047Z,3.70
2018-12-11T10:09:50.026Z,3.90
2018-12-11T10:10:49.985Z,3.70
2018-12-11T10:11:49.966Z,3.60
2018-12-11T10:12:49.964Z,3.90
2018-12-11T10:13:49.922Z,3.70
2018-12-11T10:14:49.929Z,4.00
2018-12-11T10:15:49.887Z,3.70
2018-12-11T10:16:49.858Z,3.80
2018-12-11T10:17:49.837Z,3.90
2018-12-11T10:18:49.816Z,3.60
2018-12-11T10:19:49.806Z,3.40
2018-12-11T10:20:49.865Z,3.80
2018-12-11T10:21:49.751Z,3.40
2018-12-11T10:22:49.726Z,3.40
2018-12-11T10:23:49.722Z,3.30
2018-12-11T10:24:49.703Z,3.40
2018-12-11T10:25:49.663Z,3.60
2018-12-11T10:26:49.642Z,3.40
2018-12-11T10:27:49.617Z,3.30
2018-12-11T10:28:49.596Z,3.50
2018-12-11T10:29:49.577Z,3.30
2018-12-11T10:30:49.580Z,3.00
2018-12-11T10:31:49.530Z,3.20
2018-12-11T10:32:49.518Z,3.20
2018-12-11T10:33:49.490Z,3.30
2018-12-11T10:34:49.480Z,3.20
2018-12-11T10:35:49.473Z,3.30
2018-12-11T10:36:49.520Z,3.10
2018-12-11T10:37:49.404Z,3.00
2018-12-11T10:38:49.408Z,3.50
2018-12-11T10:39:49.363Z,3.40
2018-12-11T10:40:49.359Z,3.00
2018-12-11T10:41:49.317Z,3.20
2018-12-11T10:42:49.301Z,3.00
2018-12-11T10:43:49.277Z,3.60
2018-12-11T10:44:49.292Z,3.00
2018-12-11T10:45:49.241Z,3.20
2018-12-11T10:46:49.220Z,3.00
2018-12-11T10:47:49.195Z,2.90
2018-12-11T10:48:49.171Z,3.10
2018-12-11T10:49:49.969Z,3.10
2018-12-11T10:50:49.133Z,3.10
2018-12-11T10:51:49.108Z,3.30
2018-12-11T10:52:49.088Z,3.10
2018-12-11T10:53:49.063Z,2.80
2018-12-11T10:54:49.043Z,3.10
2018-12-11T10:55:49.040Z,3.20
2018-12-11T10:56:48.998Z,3.00
2018-12-11T10:57:48.982Z,3.20
2018-12-11T10:58:48.966Z,3.10
2018-12-11T10:59:48.957Z,2.80
2018-12-11T11:00:48.940Z,3.00
2018-12-11T11:01:48.892Z,3.20
2018-12-11T11:02:48.874Z,3.10
2018-12-11T11:03:48.872Z,3.20
2018-12-11T11:04:48.834Z,2.70
2018-12-11T11:05:48.836Z,2.70
2018-12-11T11:06:48.796Z,3.00
2018-12-11T11:07:48.777Z,2.80
2018-12-11T11:08:48.749Z,2.70
2018-12-11T11:09:48.732Z,2.70
2018-12-11T11:10:48.708Z,2.90
2018-12-11T11:11:48.704Z,2.80
2018-12-11T11:12:48.735Z,2.90
2018-12-11T11:13:48.658Z,2.70
2018-12-11T11:14:48.621Z,3.10
2018-12-11T11:15:48.619Z,2.70
2018-12-11T11:16:48.593Z,2.50
2018-12-11T11:17:48.579Z,2.70
2018-12-11T11:18:48.541Z,3.10
2018-12-11T11:19:48.546Z,3.00
2018-12-11T11:20:48.508Z,2.60
2018-12-11T11:21:48.478Z,2.70
2018-12-11T11:22:48.473Z,2.60
2018-12-11T11:23:48.439Z,2.50
2018-12-11T11:24:48.416Z,2.80
2018-12-11T11:25:48.398Z,2.80
2018-12-11T11:26:48.382Z,2.50
2018-12-11T11:27:48.366Z,2.50
2018-12-11T11:28:48.343Z,2.30
2018-12-11T11:29:48.316Z,2.70
2018-12-11T11:30:48.289Z,2.80
2018-12-11T11:31:48.270Z,2.40
2018-12-11T11:32:48.265Z,2.40
2018-12-11T11:33:48.230Z,2.40
2018-12-11T11:34:48.230Z,2.40
2018-12-11T11:35:48.208Z,2.50
2018-12-11T11:36:48.170Z,2.50
2018-12-11T11:37:48.154Z,2.40
2018-12-11T11:38:48.126Z,2.30
2018-12-11T11:39:48.124Z,2.40
2018-12-11T11:40:48.085Z,2.60
2018-12-11T11:41:48.063Z,2.60
2018-12-11T11:42:48.057Z,2.60
2018-12-11T11:43:48.022Z,2.40
2018-12-11T11:44:48.016Z,2.30
2018-12-11T11:45:47.979Z,2.30
2018-12-11T11:46:47.979Z,2.50
2018-12-11T11:47:47.939Z,2.40
2018-12-11T11:48:47.919Z,2.40
2018-12-11T11:49:47.900Z,2.50
2018-12-11T11:50:47.880Z,2.30
2018-12-11T11:51:47.869Z,2.40
2018-12-11T11:52:47.838Z,2.50
2018-12-11T11:53:47.819Z,2.50
2018-12-11T11:54:47.800Z,2.30
2018-12-11T11:55:47.798Z,2.60
2018-12-11T11:56:47.756Z,2.50
2018-12-11T11:57:47.736Z,2.20
2018-12-11T11:58:47.714Z,2.20
2018-12-11T11:59:47.691Z,2.20
2018-12-11T12:00:47.677Z,2.40
2018-12-11T12:01:47.677Z,2.60
2018-12-11T12:02:47.644Z,2.40
2018-12-11T12:03:47.615Z,2.20
2018-12-11T12:04:47.600Z,2.50
2018-12-11T12:05:47.581Z,2.50
2018-12-11T12:06:47.552Z,2.60
2018-12-11T12:07:47.559Z,2.50
2018-12-11T12:08:47.513Z,2.50
2018-12-11T12:09:47.514Z,2.60
2018-12-11T12:10:47.473Z,2.40
2018-12-11T12:11:47.454Z,2.50
2018-12-11T12:12:47.439Z,2.40
2018-12-11T12:13:47.411Z,2.70
2018-12-11T12:14:49.137Z,2.70
2018-12-11T12:15:47.406Z,2.50
2018-12-11T12:16:47.358Z,2.70
2018-12-11T12:17:47.363Z,2.30
2018-12-11T12:18:47.342Z,2.60
2018-12-11T12:19:47.312Z,2.30
2018-12-11T12:20:47.319Z,2.30
2018-12-11T12:21:47.312Z,2.50
2018-12-11T12:22:47.262Z,2.70
2018-12-11T12:23:47.219Z,2.60
2018-12-11T12:24:47.219Z,2.40
2018-12-11T12:25:47.182Z,2.80
2018-12-11T12:26:47.160Z,2.60
2018-12-11T12:29:29.033Z,2.50
2018-12-11T12:30:29.033Z,2.60
2018-12-11T12:31:29.018Z,2.50
2018-12-11T12:32:28.978Z,2.30
2018-12-11T12:33:28.957Z,2.60
2018-12-11T12:34:28.941Z,2.40
2018-12-11T12:35:28.965Z,2.60
2018-12-11T12:36:28.910Z,2.50
2018-12-11T12:37:28.885Z,2.30
2018-12-11T12:38:28.863Z,2.40
2018-12-11T12:39:28.841Z,2.70
2018-12-11T12:40:28.838Z,2.60
2018-12-11T12:41:28.815Z,2.40
2018-12-11T12:42:28.781Z,2.60
2018-12-11T12:43:28.760Z,2.40
2018-12-11T12:44:28.743Z,2.20
2018-12-11T12:45:28.724Z,2.40
2018-12-11T12:46:28.725Z,2.10
2018-12-11T12:47:28.682Z,2.30
2018-12-11T12:48:28.666Z,2.30
2018-12-11T12:49:28.644Z,2.20
2018-12-11T12:50:28.635Z,2.20
2018-12-11T12:51:28.628Z,2.40
2018-12-11T12:52:28.613Z,2.20
2018-12-11T12:53:28.566Z,2.40
2018-12-11T12:54:28.546Z,2.30
2018-12-11T12:55:28.541Z,2.30
2018-12-11T12:56:28.504Z,2.40
2018-12-11T12:57:28.515Z,2.50
2018-12-11T12:58:28.467Z,2.50
2018-12-11T12:59:28.452Z,2.20
2018-12-11T13:00:28.430Z,2.30
2018-12-11T13:01:28.410Z,2.30
2018-12-11T13:02:28.390Z,2.70
2018-12-11T13:03:28.395Z,2.40
2018-12-11T13:04:28.368Z,2.40
2018-12-11T13:05:28.331Z,2.40
2018-12-11T13:06:28.308Z,2.30
2018-12-11T13:07:28.293Z,2.20
2018-12-11T13:08:28.287Z,2.70
2018-12-11T13:09:28.304Z,2.40
2018-12-11T13:10:28.239Z,2.30
2018-12-11T13:11:28.214Z,2.70
2018-12-11T13:12:28.192Z,2.60
2018-12-11T13:13:28.171Z,2.60
2018-12-11T13:14:28.178Z,2.30
2018-12-11T13:15:28.159Z,2.30
2018-12-11T13:16:28.113Z,2.90
2018-12-11T13:17:28.109Z,2.30
2018-12-11T13:18:28.077Z,2.50
2018-12-11T13:19:28.067Z,2.50
2018-12-11T13:20:28.032Z,2.70
2018-12-11T13:21:28.019Z,2.60
2018-12-11T13:22:27.993Z,2.60
2018-12-11T13:23:27.970Z,2.70